createdAt,value
2017-11-30T00:02:15.838Z,25.60
2017-11-30T00:04:43.274Z,32.20
2017-11-30T00:07:10.703Z,26.60
2017-11-30T00:09:38.146Z,27.00
2017-11-30T00:12:05.593Z,36.30
2017-11-30T00:14:33.025Z,25.77
2017-11-30T00:17:00.450Z,28.13
2017-11-30T00:19:28.658Z,26.63
2017-11-30T00:21:56.102Z,28.97
2017-11-30T00:24:23.546Z,27.03
2017-11-30T00:26:51.762Z,24.70
2017-11-30T00:29:19.202Z,30.23
2017-11-30T00:31:46.637Z,26.60
2017-11-30T00:34:14.062Z,22.83
2017-11-30T00:36:41.503Z,24.20
2017-11-30T00:41:49.510Z,25.47
2017-11-30T00:44:28.920Z,24.43
2017-11-30T00:46:56.353Z,28.80
2017-11-30T00:49:24.542Z,29.90
2017-11-30T00:51:51.990Z,26.07
2017-11-30T00:54:20.181Z,25.93
2017-11-30T00:56:47.621Z,24.93
2017-11-30T00:59:15.817Z,25.97
2017-11-30T01:01:43.258Z,30.17
2017-11-30T01:04:10.685Z,21.43
2017-11-30T01:06:38.121Z,31.63
2017-11-30T01:09:05.559Z,31.80
2017-11-30T01:11:33.006Z,29.47
2017-11-30T01:14:00.441Z,25.97
2017-11-30T01:16:28.642Z,34.83
2017-11-30T01:18:56.074Z,29.10
2017-11-30T01:21:28.463Z,30.97
2017-11-30T01:23:55.903Z,24.03
2017-11-30T01:26:24.094Z,31.27
2017-11-30T01:28:51.526Z,28.07
2017-11-30T01:31:19.722Z,26.00
2017-11-30T01:33:47.158Z,26.60
2017-11-30T01:36:15.352Z,29.90
2017-11-30T01:38:42.794Z,26.27
2017-11-30T01:41:10.991Z,28.40
2017-11-30T01:43:38.429Z,26.70
2017-11-30T01:46:05.863Z,31.90
2017-11-30T01:48:33.293Z,31.43
2017-11-30T01:51:00.729Z,31.37
2017-11-30T01:53:28.171Z,29.60
2017-11-30T01:55:55.597Z,32.20
2017-11-30T01:58:23.935Z,28.70
2017-11-30T02:00:52.676Z,24.27
2017-11-30T02:03:20.898Z,27.83
2017-11-30T02:05:48.342Z,34.13
2017-11-30T02:08:15.951Z,29.10
2017-11-30T02:10:43.393Z,29.90
2017-11-30T02:13:10.884Z,27.97
2017-11-30T02:15:39.132Z,26.03
2017-11-30T02:18:06.571Z,31.60
2017-11-30T02:20:34.011Z,27.40
2017-11-30T02:23:01.446Z,26.50
2017-11-30T02:25:28.878Z,30.17
2017-11-30T02:27:57.077Z,34.40
2017-11-30T02:30:24.508Z,27.73
2017-11-30T02:32:52.774Z,31.50
2017-11-30T02:35:23.375Z,37.70
2017-11-30T02:37:50.793Z,27.80
2017-11-30T02:40:18.322Z,35.43
2017-11-30T02:42:45.745Z,36.30
2017-11-30T02:45:13.949Z,29.60
2017-11-30T02:47:41.371Z,29.33
2017-11-30T02:50:08.836Z,29.67
2017-11-30T02:52:36.273Z,34.57
2017-11-30T02:55:03.707Z,31.37
2017-11-30T02:57:31.152Z,38.77
2017-11-30T02:59:59.360Z,30.77
2017-11-30T03:02:26.941Z,37.37
2017-11-30T03:04:54.385Z,28.33
2017-11-30T03:07:22.132Z,27.13
2017-11-30T03:09:49.555Z,34.67
2017-11-30T03:12:33.393Z,29.40
2017-11-30T03:15:00.873Z,29.47
2017-11-30T03:17:29.058Z,36.20
2017-11-30T03:19:56.548Z,34.37
2017-11-30T03:22:23.994Z,33.63
2017-11-30T03:24:52.022Z,28.97
2017-11-30T03:27:20.232Z,30.40
2017-11-30T03:29:47.672Z,31.47
2017-11-30T03:32:17.445Z,27.60
2017-11-30T03:34:44.886Z,30.37
2017-11-30T03:37:12.327Z,30.20
2017-11-30T03:39:39.759Z,24.40
2017-11-30T03:42:07.199Z,28.37
2017-11-30T03:44:35.383Z,27.87
2017-11-30T03:47:02.806Z,31.03
2017-11-30T03:49:30.246Z,25.37
2017-11-30T03:51:57.677Z,27.40
2017-11-30T03:54:25.120Z,31.97
2017-11-30T03:56:52.555Z,28.10
2017-11-30T03:59:20.766Z,26.23
2017-11-30T04:01:48.203Z,28.53
2017-11-30T04:04:15.642Z,34.37
2017-11-30T04:06:43.846Z,25.90
2017-11-30T04:09:11.271Z,32.80
2017-11-30T04:11:39.477Z,38.40
2017-11-30T04:14:06.948Z,36.73
2017-11-30T04:16:34.382Z,47.77
2017-11-30T04:19:01.809Z,34.80
2017-11-30T04:21:30.047Z,33.13
2017-11-30T04:23:57.481Z,30.73
2017-11-30T04:26:27.293Z,30.33
2017-11-30T04:28:54.723Z,29.60
2017-11-30T04:31:22.981Z,25.50
2017-11-30T04:33:50.494Z,27.33
2017-11-30T04:36:17.928Z,27.47
2017-11-30T04:38:45.361Z,35.47
2017-11-30T04:41:13.578Z,28.90
2017-11-30T04:43:41.868Z,30.50
2017-11-30T04:46:09.290Z,27.90
2017-11-30T04:48:36.726Z,31.27
2017-11-30T04:51:04.969Z,34.43
2017-11-30T04:53:32.401Z,30.20
2017-11-30T04:55:59.900Z,27.20
2017-11-30T04:58:27.326Z,37.70
2017-11-30T05:00:54.767Z,30.40
2017-11-30T05:03:22.194Z,27.30
2017-11-30T05:05:50.430Z,23.77
2017-11-30T05:08:17.861Z,29.73
2017-11-30T05:10:45.436Z,33.17
2017-11-30T05:13:13.656Z,26.50
2017-11-30T05:15:41.903Z,26.20
2017-11-30T05:18:09.460Z,29.93
2017-11-30T05:20:36.901Z,25.70
2017-11-30T05:23:04.332Z,28.50
2017-11-30T05:25:31.766Z,28.43
2017-11-30T05:27:59.983Z,23.10
2017-11-30T05:30:27.398Z,24.13
2017-11-30T05:33:00.120Z,22.13
2017-11-30T05:35:27.570Z,22.03
2017-11-30T05:37:54.997Z,24.13
2017-11-30T05:40:23.254Z,22.27
2017-11-30T05:42:51.464Z,28.23
2017-11-30T05:45:18.893Z,28.80
2017-11-30T05:47:47.111Z,28.50
2017-11-30T05:50:14.550Z,21.33
2017-11-30T05:52:42.028Z,28.87
2017-11-30T05:55:11.386Z,25.40
2017-11-30T05:57:39.588Z,24.70
2017-11-30T06:00:07.021Z,26.20
2017-11-30T06:02:35.223Z,34.07
2017-11-30T06:05:02.661Z,22.60
2017-11-30T06:07:30.094Z,26.73
2017-11-30T06:09:57.529Z,26.17
2017-11-30T06:12:25.730Z,25.70
2017-11-30T06:14:53.164Z,22.30
2017-11-30T06:17:21.366Z,21.87
2017-11-30T06:19:49.586Z,26.20
2017-11-30T06:22:17.025Z,26.50
2017-11-30T06:24:44.463Z,21.13
2017-11-30T06:27:12.670Z,19.67
2017-11-30T06:29:40.115Z,21.50
2017-11-30T06:32:07.554Z,24.20
2017-11-30T06:34:35.758Z,22.07
2017-11-30T06:37:03.203Z,21.93
2017-11-30T06:39:30.628Z,23.37
2017-11-30T06:41:58.836Z,22.37
2017-11-30T06:44:26.264Z,27.10
2017-11-30T06:46:54.465Z,26.50
2017-11-30T06:49:21.897Z,23.23
2017-11-30T06:51:50.161Z,25.73
2017-11-30T06:54:17.592Z,24.73
2017-11-30T06:56:45.029Z,22.87
2017-11-30T06:59:12.461Z,27.20
2017-11-30T07:01:39.883Z,29.33
2017-11-30T07:04:07.322Z,31.20
2017-11-30T07:06:34.744Z,29.43
2017-11-30T07:09:02.199Z,26.83
2017-11-30T07:11:29.619Z,29.07
2017-11-30T07:13:57.825Z,24.17
2017-11-30T07:16:25.256Z,27.77
2017-11-30T07:18:53.448Z,27.10
2017-11-30T07:21:20.878Z,34.60
2017-11-30T07:23:48.309Z,31.80
2017-11-30T07:26:15.745Z,27.40
2017-11-30T07:28:43.194Z,36.13
2017-11-30T07:31:11.757Z,30.50
2017-11-30T07:33:39.193Z,32.90
2017-11-30T07:36:06.624Z,29.03
2017-11-30T07:38:34.065Z,27.50
2017-11-30T07:41:01.544Z,26.80
2017-11-30T07:43:28.998Z,24.57
2017-11-30T07:45:57.194Z,26.13
2017-11-30T07:48:24.617Z,26.07
2017-11-30T07:50:52.059Z,29.63
2017-11-30T07:53:19.480Z,29.10
2017-11-30T07:55:47.690Z,32.30
2017-11-30T07:58:15.111Z,30.87
2017-11-30T08:00:43.330Z,40.97
2017-11-30T08:03:10.737Z,33.57
2017-11-30T08:05:39.261Z,35.43
2017-11-30T08:08:07.946Z,33.30
2017-11-30T08:10:36.408Z,35.40
2017-11-30T08:13:03.831Z,38.77
2017-11-30T08:15:31.265Z,37.37
2017-11-30T08:17:58.729Z,32.37
2017-11-30T08:20:26.408Z,31.80
2017-11-30T08:22:53.825Z,36.30
2017-11-30T08:25:21.263Z,33.47
2017-11-30T08:27:48.689Z,29.00
2017-11-30T08:30:16.894Z,30.33
2017-11-30T08:32:44.325Z,34.83
2017-11-30T08:35:12.525Z,37.63
2017-11-30T08:37:39.972Z,40.50
2017-11-30T08:40:07.412Z,47.40
2017-11-30T08:42:35.604Z,53.20
2017-11-30T08:45:03.071Z,40.20
2017-11-30T08:47:30.487Z,41.37
2017-11-30T08:49:57.917Z,33.53
2017-11-30T08:52:25.404Z,33.00
2017-11-30T08:54:52.836Z,24.57
2017-11-30T08:57:20.281Z,34.43
2017-11-30T08:59:47.704Z,33.30
2017-11-30T09:02:15.145Z,26.57
2017-11-30T09:04:43.337Z,30.77
2017-11-30T09:07:10.770Z,25.17
2017-11-30T09:09:38.961Z,26.90
2017-11-30T09:12:09.461Z,26.73
2017-11-30T09:14:36.881Z,31.87
2017-11-30T09:17:04.305Z,30.27
2017-11-30T09:19:31.729Z,28.47
2017-11-30T09:21:59.169Z,28.27
2017-11-30T09:24:26.606Z,26.47
2017-11-30T09:26:54.080Z,28.50
2017-11-30T09:29:21.494Z,21.10
2017-11-30T09:31:48.920Z,29.03
2017-11-30T09:34:16.351Z,27.47
2017-11-30T09:36:43.796Z,26.43
2017-11-30T09:39:11.276Z,32.07
2017-11-30T09:41:38.696Z,29.17
2017-11-30T09:44:06.125Z,26.83
2017-11-30T09:46:34.333Z,34.90
2017-11-30T09:49:01.764Z,24.50
2017-11-30T09:51:29.198Z,26.77
2017-11-30T09:53:56.629Z,27.73
2017-11-30T09:56:24.061Z,27.03
2017-11-30T09:58:51.491Z,26.70
2017-11-30T10:01:18.923Z,28.23
2017-11-30T10:03:46.353Z,28.50
2017-11-30T10:06:13.785Z,28.60
2017-11-30T10:08:41.220Z,24.33
2017-11-30T10:11:08.650Z,30.80
2017-11-30T10:13:36.853Z,31.70
2017-11-30T10:16:04.277Z,27.30
2017-11-30T10:18:31.709Z,30.53
2017-11-30T10:20:59.153Z,31.80
2017-11-30T10:23:26.598Z,29.57
2017-11-30T10:25:54.031Z,26.03
2017-11-30T10:28:21.461Z,21.17
2017-11-30T10:30:48.956Z,26.23
2017-11-30T10:33:17.141Z,27.27
2017-11-30T10:35:44.566Z,24.90
2017-11-30T10:38:12.765Z,42.47
2017-11-30T10:40:40.208Z,24.50
2017-11-30T10:43:07.648Z,22.20
2017-11-30T10:45:35.848Z,26.07
2017-11-30T10:48:03.321Z,26.43
2017-11-30T10:50:30.748Z,24.20
2017-11-30T10:52:58.936Z,24.67
2017-11-30T10:55:26.369Z,23.53
2017-11-30T10:57:54.569Z,15.80
2017-11-30T11:00:21.997Z,17.90
2017-11-30T11:02:50.301Z,19.13
2017-11-30T11:05:17.862Z,18.00
2017-11-30T11:07:45.378Z,21.53
2017-11-30T11:10:13.329Z,18.97
2017-11-30T11:12:41.219Z,15.87
2017-11-30T11:15:08.696Z,18.90
2017-11-30T11:17:36.881Z,15.93
2017-11-30T11:20:04.440Z,16.87
2017-11-30T11:22:32.616Z,17.67
2017-11-30T11:25:01.476Z,17.40
2017-11-30T11:27:28.918Z,19.37
2017-11-30T11:29:56.308Z,14.57
2017-11-30T11:32:24.493Z,19.37
2017-11-30T11:34:51.943Z,19.17
2017-11-30T11:37:20.132Z,19.43
2017-11-30T11:39:47.657Z,12.53
2017-11-30T11:42:15.073Z,13.53
2017-11-30T11:44:42.504Z,16.77
2017-11-30T11:47:09.925Z,13.27
2017-11-30T11:49:37.370Z,15.90
2017-11-30T11:52:04.846Z,16.77
2017-11-30T11:54:32.245Z,15.37
2017-11-30T11:56:59.673Z,15.47
2017-11-30T11:59:27.858Z,16.27
2017-11-30T12:01:55.343Z,15.07
2017-11-30T12:04:22.750Z,13.10
2017-11-30T12:06:50.945Z,15.97
2017-11-30T12:09:18.374Z,15.63
2017-11-30T12:11:45.802Z,13.20
2017-11-30T12:14:13.225Z,17.93
2017-11-30T12:16:40.653Z,14.23
2017-11-30T12:19:08.837Z,15.63
2017-11-30T12:21:37.029Z,11.20
2017-11-30T12:24:04.450Z,14.37
2017-11-30T12:26:32.658Z,17.20
2017-11-30T12:29:00.089Z,17.40
2017-11-30T12:31:28.281Z,15.50
2017-11-30T12:33:55.740Z,16.27
2017-11-30T12:36:23.160Z,14.73
2017-11-30T12:38:50.585Z,19.67
2017-11-30T12:41:18.141Z,12.60
2017-11-30T12:43:45.869Z,17.13
2017-11-30T12:46:13.302Z,17.47
2017-11-30T12:48:40.717Z,14.20
2017-11-30T12:51:08.142Z,14.67
2017-11-30T12:53:35.568Z,14.97
2017-11-30T12:56:02.990Z,14.77
2017-11-30T12:58:30.413Z,15.03
2017-11-30T13:00:57.865Z,19.50
2017-11-30T13:03:26.043Z,15.13
2017-11-30T13:05:53.459Z,14.73
2017-11-30T13:08:20.891Z,12.57
2017-11-30T13:10:48.311Z,15.20
2017-11-30T13:13:15.730Z,18.70
2017-11-30T13:15:43.147Z,8.80
2017-11-30T13:18:10.591Z,14.57
2017-11-30T13:20:38.015Z,15.90
2017-11-30T13:23:05.447Z,19.87
2017-11-30T13:25:32.873Z,14.07
2017-11-30T13:28:00.309Z,16.50
2017-11-30T13:30:28.483Z,13.30
2017-11-30T13:32:55.919Z,19.30
2017-11-30T13:35:24.102Z,14.73
2017-11-30T13:37:52.308Z,17.30
2017-11-30T13:40:19.718Z,14.63
2017-11-30T13:42:47.143Z,15.63
2017-11-30T13:45:14.567Z,13.30
2017-11-30T13:47:41.991Z,16.53
2017-11-30T13:50:09.419Z,14.70
2017-11-30T13:52:36.852Z,15.43
2017-11-30T13:55:04.269Z,15.30
2017-11-30T13:57:32.459Z,15.53
2017-11-30T13:59:59.883Z,14.63
2017-11-30T14:02:27.299Z,17.43
2017-11-30T14:04:54.731Z,20.60
2017-11-30T14:07:22.158Z,14.67
2017-11-30T14:09:49.571Z,17.87
2017-11-30T14:12:17.005Z,17.00
2017-11-30T14:14:44.427Z,17.70
2017-11-30T14:17:11.847Z,17.47
2017-11-30T14:19:39.290Z,22.47
2017-11-30T14:22:06.708Z,17.03
2017-11-30T14:24:34.910Z,19.13
2017-11-30T14:27:02.337Z,15.67
2017-11-30T14:29:29.760Z,15.47
2017-11-30T14:31:57.186Z,17.80
2017-11-30T14:34:24.616Z,22.60
2017-11-30T14:36:52.806Z,19.83
2017-11-30T14:39:20.228Z,13.40
2017-11-30T14:41:47.660Z,22.97
2017-11-30T14:44:15.095Z,17.67
2017-11-30T14:46:42.525Z,16.13
2017-11-30T14:49:10.726Z,19.07
2017-11-30T14:51:38.143Z,17.57
2017-11-30T14:54:06.344Z,19.43
2017-11-30T14:56:33.805Z,21.73
2017-11-30T14:59:01.320Z,19.40
2017-11-30T15:01:28.743Z,19.70
2017-11-30T15:03:56.936Z,16.60
2017-11-30T15:06:24.359Z,16.17
2017-11-30T15:08:51.787Z,15.50
2017-11-30T15:11:19.986Z,17.50
2017-11-30T15:13:47.403Z,18.83
2017-11-30T15:16:15.611Z,19.17
2017-11-30T15:18:43.026Z,14.90
2017-11-30T15:21:10.482Z,23.47
2017-11-30T15:23:37.909Z,16.77
2017-11-30T15:26:05.335Z,19.27
2017-11-30T15:28:32.763Z,18.00
2017-11-30T15:31:00.964Z,21.57
2017-11-30T15:33:28.385Z,22.90
2017-11-30T15:35:55.818Z,22.50
2017-11-30T15:38:23.248Z,21.40
2017-11-30T15:40:50.709Z,19.70
2017-11-30T15:43:18.267Z,26.70
2017-11-30T15:45:45.706Z,20.77
2017-11-30T15:48:13.133Z,18.67
2017-11-30T15:50:40.749Z,25.03
2017-11-30T15:53:08.190Z,22.53
2017-11-30T15:55:35.616Z,23.07
2017-11-30T15:58:03.803Z,29.23
2017-11-30T16:00:31.241Z,29.13
2017-11-30T16:02:58.667Z,24.73
2017-11-30T16:05:26.107Z,24.43
2017-11-30T16:07:53.611Z,22.00
2017-11-30T16:10:21.021Z,14.70
2017-11-30T16:12:48.460Z,17.80
2017-11-30T16:15:15.883Z,11.63
2017-11-30T16:17:44.085Z,16.20
2017-11-30T16:20:11.535Z,13.60
2017-11-30T16:22:38.983Z,14.77
2017-11-30T16:25:06.384Z,12.17
2017-11-30T16:27:33.814Z,11.27
2017-11-30T16:30:01.234Z,8.87
2017-11-30T16:32:28.655Z,7.93
2017-11-30T16:34:56.092Z,9.03
2017-11-30T16:37:23.505Z,8.70
2017-11-30T16:39:51.695Z,10.70
2017-11-30T16:42:19.892Z,11.30
2017-11-30T16:44:47.324Z,10.20
2017-11-30T16:47:15.539Z,12.50
2017-11-30T16:49:42.973Z,16.10
2017-11-30T16:52:10.404Z,11.50
2017-11-30T16:54:38.671Z,11.43
2017-11-30T16:57:06.113Z,11.20
2017-11-30T16:59:33.540Z,13.30
2017-11-30T17:02:00.975Z,15.07
2017-11-30T17:04:28.399Z,13.90
2017-11-30T17:06:55.875Z,13.33
2017-11-30T17:09:24.136Z,15.77
2017-11-30T17:11:52.324Z,13.63
2017-11-30T17:14:20.535Z,16.20
2017-11-30T17:16:47.959Z,15.23
2017-11-30T17:19:16.166Z,17.20
2017-11-30T17:21:43.600Z,13.63
2017-11-30T17:24:11.029Z,12.37
2017-11-30T17:26:38.451Z,12.40
2017-11-30T17:29:06.653Z,11.17
2017-11-30T17:31:34.086Z,13.10
2017-11-30T17:34:01.541Z,13.03
2017-11-30T17:36:29.733Z,15.10
2017-11-30T17:38:57.178Z,14.47
2017-11-30T17:41:24.619Z,16.90
2017-11-30T17:43:52.034Z,17.00
2017-11-30T17:46:20.374Z,16.47
2017-11-30T17:48:47.800Z,18.63
2017-11-30T17:51:15.227Z,16.93
2017-11-30T17:53:43.436Z,14.53
2017-11-30T17:56:10.863Z,15.20
2017-11-30T17:58:39.068Z,15.33
2017-11-30T18:01:06.496Z,21.20
2017-11-30T18:03:34.687Z,13.13
2017-11-30T18:06:02.104Z,10.03
2017-11-30T18:08:29.535Z,9.33
2017-11-30T18:10:56.988Z,7.00
2017-11-30T18:13:24.432Z,4.50
2017-11-30T18:15:51.863Z,6.80
2017-11-30T18:18:19.293Z,4.90
2017-11-30T18:20:46.725Z,2.83
2017-11-30T18:23:14.147Z,5.57
2017-11-30T18:25:41.585Z,4.33
2017-11-30T18:28:09.008Z,5.47
2017-11-30T18:30:36.436Z,3.30
2017-11-30T18:33:03.860Z,3.63
2017-11-30T18:35:31.288Z,4.30
2017-11-30T18:37:58.705Z,4.17
2017-11-30T18:40:26.895Z,4.10
2017-11-30T18:42:54.369Z,6.00
2017-11-30T18:45:21.801Z,3.93
2017-11-30T18:47:49.217Z,5.40
2017-11-30T18:50:16.641Z,6.23
2017-11-30T18:52:44.059Z,5.57
2017-11-30T18:55:11.603Z,6.07
2017-11-30T18:57:39.067Z,7.60
2017-11-30T19:00:06.504Z,6.60
2017-11-30T19:02:33.924Z,8.77
2017-11-30T19:05:01.374Z,7.13
2017-11-30T19:07:28.821Z,9.50
2017-11-30T19:09:56.229Z,7.73
2017-11-30T19:12:23.659Z,7.20
2017-11-30T19:14:51.087Z,9.10
2017-11-30T19:17:18.503Z,8.43
2017-11-30T19:19:45.931Z,7.50
2017-11-30T19:22:14.127Z,6.80
2017-11-30T19:24:41.539Z,7.10
2017-11-30T19:27:08.980Z,7.80
2017-11-30T19:29:36.396Z,7.93
2017-11-30T19:32:03.836Z,11.50
2017-11-30T19:34:32.024Z,7.70
2017-11-30T19:37:00.231Z,6.13
2017-11-30T19:39:27.718Z,5.77
2017-11-30T19:41:55.124Z,5.87
2017-11-30T19:44:22.572Z,7.70
2017-11-30T19:46:51.650Z,8.30
2017-11-30T19:49:19.061Z,7.50
2017-11-30T19:51:46.507Z,8.20
2017-11-30T19:54:13.920Z,6.53
2017-11-30T19:56:41.336Z,5.67
2017-11-30T19:59:08.767Z,7.30
2017-11-30T20:01:36.202Z,6.60
2017-11-30T20:04:06.355Z,18.33
2017-11-30T20:06:34.789Z,12.17
2017-11-30T20:09:02.216Z,11.63
2017-11-30T20:11:29.646Z,11.03
2017-11-30T20:13:57.078Z,11.70
2017-11-30T20:16:25.264Z,11.30
2017-11-30T20:18:52.691Z,12.00
2017-11-30T20:21:20.880Z,11.23
2017-11-30T20:23:49.088Z,12.00
2017-11-30T20:26:16.508Z,9.77
2017-11-30T20:28:44.691Z,9.80
2017-11-30T20:31:12.127Z,9.77
2017-11-30T20:33:39.547Z,8.43
2017-11-30T20:36:06.985Z,12.63
2017-11-30T20:38:34.399Z,11.60
2017-11-30T20:41:02.604Z,12.63
2017-11-30T20:43:30.033Z,12.13
2017-11-30T20:45:58.224Z,12.90
2017-11-30T20:48:25.647Z,13.47
2017-11-30T20:50:53.107Z,17.30
2017-11-30T20:53:20.520Z,10.73
2017-11-30T20:55:47.976Z,13.27
2017-11-30T20:58:15.393Z,14.10
2017-11-30T21:00:43.584Z,16.30
2017-11-30T21:03:12.043Z,14.00
2017-11-30T21:05:39.461Z,13.73
2017-11-30T21:08:06.907Z,12.10
2017-11-30T21:10:35.323Z,19.17
2017-11-30T21:13:03.717Z,12.20
2017-11-30T21:15:31.923Z,11.83
2017-11-30T21:18:00.116Z,11.83
2017-11-30T21:20:29.583Z,10.33
2017-11-30T21:22:57.771Z,9.70
2017-11-30T21:25:26.209Z,14.50
2017-11-30T21:27:53.639Z,13.13
2017-11-30T21:30:21.060Z,10.50
2017-11-30T21:32:48.491Z,11.37
2017-11-30T21:35:16.680Z,12.80
2017-11-30T21:37:45.871Z,13.73
2017-11-30T21:40:14.065Z,15.67
2017-11-30T21:42:41.532Z,11.93
2017-11-30T21:45:08.964Z,17.90
2017-11-30T21:47:37.155Z,11.67
2017-11-30T21:50:04.586Z,14.43
2017-11-30T21:52:32.006Z,11.90
2017-11-30T21:54:59.433Z,14.20
2017-11-30T21:57:26.860Z,12.63
2017-11-30T21:59:55.057Z,13.03
2017-11-30T22:02:22.485Z,16.73
2017-11-30T22:04:49.903Z,12.57
2017-11-30T22:07:17.344Z,11.47
2017-11-30T22:09:44.780Z,15.23
2017-11-30T22:12:12.203Z,14.07
2017-11-30T22:14:39.668Z,17.40
2017-11-30T22:17:07.871Z,18.43
2017-11-30T22:19:35.294Z,23.10
2017-11-30T22:22:03.506Z,20.90
2017-11-30T22:24:30.934Z,17.90
2017-11-30T22:26:59.127Z,17.73
2017-11-30T22:29:26.556Z,22.07
2017-11-30T22:31:54.001Z,19.87
2017-11-30T22:34:21.423Z,23.43
2017-11-30T22:36:48.860Z,21.37
2017-11-30T22:39:16.308Z,21.97
2017-11-30T22:41:43.749Z,25.67
2017-11-30T22:44:11.202Z,25.53
2017-11-30T22:46:39.407Z,27.00
2017-11-30T22:49:06.874Z,23.93
2017-11-30T22:51:35.057Z,23.33
2017-11-30T22:54:02.490Z,24.43
2017-11-30T22:56:29.923Z,23.87
2017-11-30T22:58:57.352Z,22.73
2017-11-30T23:01:24.815Z,30.20
2017-11-30T23:03:52.248Z,24.73
2017-11-30T23:06:19.676Z,21.53
2017-11-30T23:08:47.114Z,25.07
2017-11-30T23:11:15.307Z,25.40
2017-11-30T23:13:42.753Z,18.53
2017-11-30T23:16:10.955Z,17.63
2017-11-30T23:18:38.392Z,15.50
2017-11-30T23:21:05.819Z,19.07
2017-11-30T23:23:33.256Z,20.97
2017-11-30T23:26:00.695Z,22.90
2017-11-30T23:28:28.145Z,22.27
2017-11-30T23:30:55.582Z,22.10
2017-11-30T23:33:23.007Z,14.90
2017-11-30T23:35:50.494Z,22.07
2017-11-30T23:38:17.922Z,21.80
2017-11-30T23:40:45.356Z,20.00
2017-11-30T23:43:12.787Z,25.00
2017-11-30T23:45:40.228Z,14.60
2017-11-30T23:48:07.670Z,20.20
2017-11-30T23:50:35.877Z,18.93
2017-11-30T23:53:03.308Z,23.07
2017-11-30T23:55:31.508Z,15.93
2017-11-30T23:57:58.946Z,19.37
